KBMQ

Burnet Municipal Kate Craddock Field Airport

Burnet, Texas, USA
METAR KBMQ 150253Z AUTO 14005KT 10SM CLR 30/19 A2996 RMK AO2 SLP125 T03000194 53008 $
Observed Flight Rules
Aug-15 @ 02:53 UTC (42 minutes ago) Visual Flight Rules
Wind Visibility Clouds
140° at 5 knots 10 miles
  • Clear skies
Temperatures Readings
Current 30°C / 86°F
Dewpoint 19°C / 66°F
Humidity 52%
Altimeter 29.96" Hg
Pressure 1012.5 hPa
Elevation 389
METAR KBMQ 150253Z AUTO 14005KT 10SM CLR 30/19 A2996 RMK AO2 SLP125 T03000194 53008 $
Observed Flight Rules
Aug-15 @ 02:53 UTC
(42 minutes ago)
VFR
Wind Visibility
140° at 5 knots 10 miles
Clouds
  • Clear skies
Temperature Dewpoint
30°C / 86°F 19°C / 66°F
Humidity Altimeter Pressure
52% 29.96" Hg 1012.5 hPa